Laceys Spring, Alabama
Current Conditions -  °F | °C
As of 4:58 PM on Wednesday 26 Nov 2014 (Local Time) from KHUA Reporting Station
Light Rain Light Rain  
Wind Chill: 50°   Ceiling: 6000
Heat Index: 50°   Visibility: 9mi
Dew Point: 29°   Wind: 8mph
Humidity: 44%   Direction: 150°SSE
Pressure: 30"   Gusts: NA
Location:  34.53°N, 86.6°W
Report Text: KHUA 262258Z AUTO 15007KT 9SM -RA SCT046 OVC060 10/M02 A3000 RMK AO2 RAB2246 SLP163 P0000 T01021017
Loading
Personal Weather Stations






























Interactive Weather Map New forecast layout! Learn more

10-Day Weather Forecast

Advertisements
Track Severe Weather on mobile